Time;durP1;ratioP1;P1;durP2;ratioP2;P2;SDS_P1;SDS_P2;PMS_P1;PMS_P2;Temp;Humidity;BMP_temperature;BMP_pressure;BME280_temperature;BME280_humidity;BME280_pressure;Samples;Min_cycle;Max_cycle;Signal;HPM_P1;HPM_P2
2021/10/22 00:02:00;;;;;;;10.93;2.50;;;7.70;99.90;;;;;;5114752;28;20475;-69
2021/10/22 00:04:27;;;;;;;8.27;2.20;;;7.70;99.90;;;;;;5114570;28;20462;-70
2021/10/22 00:06:54;;;;;;;7.40;2.63;;;7.70;99.90;;;;;;5114350;28;20559;-69
2021/10/22 00:09:22;;;;;;;7.87;2.20;;;7.70;99.90;;;;;;5114109;28;20459;-70
2021/10/22 00:11:49;;;;;;;7.60;2.37;;;7.70;99.90;;;;;;5114263;28;20470;-69
2021/10/22 00:14:17;;;;;;;9.30;2.50;;;7.70;99.90;;;;;;5114570;28;20454;-70
2021/10/22 00:16:45;;;;;;;8.07;2.47;;;7.70;99.90;;;;;;5113938;28;21039;-70
2021/10/22 00:19:12;;;;;;;9.63;2.43;;;7.60;99.90;;;;;;5114843;28;20466;-70
2021/10/22 00:21:39;;;;;;;4.20;1.60;;;7.60;99.90;;;;;;5114858;28;20472;-70
2021/10/22 00:24:06;;;;;;;8.73;2.50;;;7.60;99.90;;;;;;5118288;28;20452;-70
2021/10/22 00:26:33;;;;;;;9.87;2.27;;;7.60;99.90;;;;;;5118048;27;20512;-70
2021/10/22 00:29:00;;;;;;;13.63;2.20;;;7.60;99.90;;;;;;5117807;28;20450;-70
2021/10/22 00:31:27;;;;;;;12.70;2.60;;;7.60;99.90;;;;;;5117776;28;20488;-70
2021/10/22 00:33:55;;;;;;;6.50;2.50;;;7.50;99.90;;;;;;5117920;28;20474;-70
2021/10/22 00:36:22;;;;;;;8.27;2.67;;;7.50;99.90;;;;;;5117861;28;20467;-70
2021/10/22 00:38:48;;;;;;;7.83;2.70;;;7.50;99.90;;;;;;5117768;28;20460;-70
2021/10/22 00:41:17;;;;;;;8.43;2.40;;;7.50;99.90;;;;;;5117565;27;20556;-70
2021/10/22 00:43:44;;;;;;;5.90;2.23;;;7.50;99.90;;;;;;5117810;28;20781;-69
2021/10/22 00:46:13;;;;;;;11.60;3.10;;;7.50;99.90;;;;;;5117809;28;20458;-70
2021/10/22 00:48:40;;;;;;;11.40;2.57;;;7.50;99.90;;;;;;5117611;28;20835;-70
2021/10/22 00:51:12;;;;;;;14.07;2.73;;;7.50;99.90;;;;;;5117553;28;20797;-70
2021/10/22 00:53:40;;;;;;;8.53;2.83;;;7.50;99.90;;;;;;5117613;28;20535;-70
2021/10/22 00:56:08;;;;;;;11.27;4.00;;;7.50;99.90;;;;;;5117820;28;20579;-70
2021/10/22 00:58:35;;;;;;;14.20;2.97;;;7.50;99.90;;;;;;5117295;28;20958;-70
2021/10/22 01:01:02;;;;;;;6.27;2.00;;;7.40;99.90;;;;;;5117411;28;20492;-70
2021/10/22 01:03:28;;;;;;;9.43;2.13;;;7.40;99.90;;;;;;5117056;28;20447;-70
2021/10/22 01:05:59;;;;;;;8.53;2.10;;;7.40;99.90;;;;;;5117599;27;20456;-69
2021/10/22 01:08:29;;;;;;;8.17;2.60;;;7.40;99.90;;;;;;5117148;28;20540;-70
2021/10/22 01:10:56;;;;;;;8.00;2.23;;;7.40;99.90;;;;;;5116881;28;20456;-69
2021/10/22 01:13:23;;;;;;;8.77;2.23;;;7.40;99.90;;;;;;5117013;28;20456;-70
2021/10/22 01:15:50;;;;;;;8.00;2.20;;;7.30;99.90;;;;;;5117086;28;20476;-70
2021/10/22 01:18:17;;;;;;;7.03;2.80;;;7.30;99.90;;;;;;5117130;28;20484;-70
2021/10/22 01:20:45;;;;;;;6.73;2.23;;;7.30;99.90;;;;;;5117588;28;20558;-70
2021/10/22 01:23:12;;;;;;;22.37;2.70;;;7.30;99.90;;;;;;5116903;28;20458;-70
2021/10/22 01:25:38;;;;;;;15.90;2.70;;;7.30;99.90;;;;;;5117270;28;20459;-70
2021/10/22 01:28:06;;;;;;;11.30;2.20;;;7.30;99.90;;;;;;5117756;28;20458;-70
2021/10/22 01:30:33;;;;;;;8.93;2.40;;;7.30;99.90;;;;;;5117521;28;20449;-70
2021/10/22 01:33:03;;;;;;;7.90;2.40;;;7.30;99.90;;;;;;5117015;28;20450;-70
2021/10/22 01:35:30;;;;;;;6.77;2.10;;;7.30;99.90;;;;;;5117373;28;20448;-70
2021/10/22 01:37:59;;;;;;;12.47;3.07;;;7.20;99.90;;;;;;5117101;28;20945;-70
2021/10/22 01:40:27;;;;;;;8.30;2.17;;;7.20;99.90;;;;;;5116332;28;20907;-71
2021/10/22 01:42:54;;;;;;;7.00;2.10;;;7.30;99.90;;;;;;5116159;28;20992;-70
2021/10/22 01:45:20;;;;;;;11.97;2.63;;;7.30;99.90;;;;;;5116572;28;20967;-70
2021/10/22 01:47:48;;;;;;;12.80;2.23;;;7.20;99.90;;;;;;5116796;28;20452;-70
2021/10/22 01:50:15;;;;;;;9.10;2.37;;;7.30;99.90;;;;;;5116162;28;20455;-70
2021/10/22 01:52:43;;;;;;;14.17;1.93;;;7.30;99.90;;;;;;5116399;28;20479;-70
2021/10/22 01:55:11;;;;;;;5.70;2.00;;;7.20;99.90;;;;;;5116368;28;20474;-70
2021/10/22 01:57:38;;;;;;;12.73;2.10;;;7.20;99.90;;;;;;5116129;28;20579;-70
2021/10/22 02:00:06;;;;;;;15.73;1.83;;;7.30;99.90;;;;;;5116091;28;20468;-70
2021/10/22 02:02:33;;;;;;;11.00;2.67;;;7.30;99.90;;;;;;5116268;28;20782;-70
2021/10/22 02:05:00;;;;;;;5.70;2.33;;;7.20;99.90;;;;;;5116409;28;20464;-70
2021/10/22 02:07:27;;;;;;;4.47;2.27;;;7.20;99.90;;;;;;5116016;28;20606;-70
2021/10/22 02:09:54;;;;;;;7.40;2.60;;;7.30;99.90;;;;;;5115966;28;20479;-70
2021/10/22 02:12:22;;;;;;;5.20;2.10;;;7.30;99.90;;;;;;5116067;28;20463;-70
2021/10/22 02:14:48;;;;;;;7.90;2.03;;;7.30;99.90;;;;;;5116696;28;20466;-70
2021/10/22 02:17:15;;;;;;;9.73;2.23;;;7.30;99.90;;;;;;5115659;28;20958;-70
2021/10/22 02:19:42;;;;;;;11.50;2.63;;;7.30;99.90;;;;;;5115891;27;20464;-70
2021/10/22 02:22:08;;;;;;;6.97;1.83;;;7.30;99.90;;;;;;5116057;28;20820;-71
2021/10/22 02:24:37;;;;;;;9.47;3.70;;;7.30;99.90;;;;;;5116311;28;20474;-70
2021/10/22 02:27:04;;;;;;;8.97;1.90;;;7.30;99.90;;;;;;5116004;28;20460;-70
2021/10/22 02:29:33;;;;;;;12.07;3.10;;;7.20;99.90;;;;;;5115846;28;20458;-70
2021/10/22 02:32:00;;;;;;;15.43;2.90;;;7.20;99.90;;;;;;5116401;28;20475;-70
2021/10/22 02:34:26;;;;;;;15.77;2.73;;;7.20;99.90;;;;;;5115399;28;20462;-70
2021/10/22 02:36:53;;;;;;;8.50;2.30;;;7.20;99.90;;;;;;5115218;28;20470;-70
2021/10/22 02:39:20;;;;;;;9.53;2.97;;;7.20;99.90;;;;;;5115310;28;20479;-70
2021/10/22 02:41:49;;;;;;;9.37;2.70;;;7.20;99.90;;;;;;5115460;28;20521;-70
2021/10/22 02:44:16;;;;;;;12.03;2.70;;;7.20;99.90;;;;;;5114950;28;20456;-70
2021/10/22 02:46:44;;;;;;;12.23;2.60;;;7.20;99.90;;;;;;5115026;28;20452;-70
2021/10/22 02:49:12;;;;;;;7.10;2.40;;;7.30;99.90;;;;;;5115436;28;20452;-70
2021/10/22 02:51:39;;;;;;;14.70;2.37;;;7.30;99.90;;;;;;5115085;28;20472;-70
2021/10/22 02:54:06;;;;;;;8.50;2.90;;;7.30;99.90;;;;;;5115321;28;20754;-70
2021/10/22 02:56:32;;;;;;;10.10;2.47;;;7.30;99.90;;;;;;5115133;28;20486;-70
2021/10/22 02:58:59;;;;;;;8.97;2.73;;;7.30;99.90;;;;;;5114976;28;20988;-70
2021/10/22 03:01:26;;;;;;;13.07;3.07;;;7.30;99.90;;;;;;5115296;28;20469;-70
2021/10/22 03:03:54;;;;;;;5.00;1.93;;;7.30;99.90;;;;;;5115406;28;20465;-70
2021/10/22 03:06:20;;;;;;;9.40;2.93;;;7.30;99.90;;;;;;5114640;28;20465;-70
2021/10/22 03:08:47;;;;;;;7.40;2.00;;;7.30;99.90;;;;;;5115441;28;20437;-69
2021/10/22 03:11:14;;;;;;;9.57;2.13;;;7.30;99.90;;;;;;5114952;28;20453;-70
2021/10/22 03:13:41;;;;;;;6.20;1.93;;;7.30;99.90;;;;;;5115336;28;20453;-69
2021/10/22 03:16:08;;;;;;;7.83;2.50;;;7.30;99.90;;;;;;5116072;28;20548;-68
2021/10/22 03:18:34;;;;;;;15.77;2.97;;;7.30;99.90;;;;;;5118616;28;20490;-71
2021/10/22 03:21:02;;;;;;;8.27;2.60;;;7.30;99.90;;;;;;5114998;28;20462;-70
2021/10/22 03:23:29;;;;;;;9.10;2.33;;;7.30;99.90;;;;;;5115286;28;20770;-70
2021/10/22 03:25:59;;;;;;;12.90;2.90;;;7.30;99.90;;;;;;5114794;28;20906;-70
2021/10/22 03:28:26;;;;;;;7.47;2.97;;;7.30;99.90;;;;;;5114693;28;20933;-70
2021/10/22 03:30:52;;;;;;;9.50;2.80;;;7.30;99.90;;;;;;5115065;28;20456;-70
2021/10/22 03:33:19;;;;;;;10.33;2.97;;;7.40;99.90;;;;;;5115139;28;20460;-69
2021/10/22 03:35:46;;;;;;;15.63;3.03;;;7.30;99.90;;;;;;5114998;28;20463;-69
2021/10/22 03:38:14;;;;;;;12.23;3.03;;;7.30;99.90;;;;;;5114934;28;20491;-69
2021/10/22 03:40:41;;;;;;;11.43;2.87;;;7.30;99.90;;;;;;5115246;28;20456;-71
2021/10/22 03:43:07;;;;;;;9.37;2.60;;;7.30;99.90;;;;;;5115116;28;20467;-68
2021/10/22 03:45:34;;;;;;;13.90;3.27;;;7.30;99.90;;;;;;5114617;28;20466;-69
2021/10/22 03:48:01;;;;;;;13.00;2.40;;;7.30;99.90;;;;;;5114737;28;20463;-69
2021/10/22 03:50:28;;;;;;;8.63;3.03;;;7.30;99.90;;;;;;5115018;28;20466;-69
2021/10/22 03:52:54;;;;;;;7.90;2.50;;;7.30;99.90;;;;;;5114866;28;20465;-71
2021/10/22 03:55:23;;;;;;;4.97;1.90;;;7.30;99.90;;;;;;5114883;28;20482;-70
2021/10/22 03:57:50;;;;;;;8.63;2.50;;;7.30;99.90;;;;;;5117452;28;20477;-70
2021/10/22 04:00:16;;;;;;;16.53;2.70;;;7.30;99.90;;;;;;5118808;28;20497;-70
2021/10/22 04:02:44;;;;;;;10.90;2.60;;;7.40;99.90;;;;;;5118925;28;20464;-70
2021/10/22 04:05:10;;;;;;;11.03;2.90;;;7.40;99.90;;;;;;5118741;28;20458;-70
2021/10/22 04:07:37;;;;;;;7.30;2.17;;;7.40;99.90;;;;;;5118027;28;20490;-70
2021/10/22 04:10:06;;;;;;;8.00;1.97;;;7.40;99.90;;;;;;5118322;28;20462;-70
2021/10/22 04:12:34;;;;;;;8.20;2.23;;;7.40;99.90;;;;;;5118542;28;20536;-69
2021/10/22 04:15:01;;;;;;;7.07;1.87;;;7.40;99.90;;;;;;5118466;27;20454;-70
2021/10/22 04:17:28;;;;;;;6.97;2.67;;;7.40;99.90;;;;;;5118130;28;20452;-69
2021/10/22 04:19:55;;;;;;;8.80;2.10;;;7.30;99.90;;;;;;5118436;28;20463;-70
2021/10/22 04:22:21;;;;;;;5.07;1.87;;;7.40;99.90;;;;;;5118215;28;20572;-70
2021/10/22 04:24:48;;;;;;;7.40;2.73;;;7.40;99.90;;;;;;5117929;28;20908;-70
2021/10/22 04:27:15;;;;;;;7.23;1.80;;;7.40;99.90;;;;;;5118066;28;20466;-70
2021/10/22 04:29:43;;;;;;;5.80;1.87;;;7.30;99.90;;;;;;5118155;28;20463;-69
2021/10/22 04:32:10;;;;;;;6.43;1.50;;;7.40;99.90;;;;;;5117675;28;20928;-70
2021/10/22 04:34:39;;;;;;;4.33;1.47;;;7.30;99.90;;;;;;5117784;28;20836;-70
2021/10/22 04:37:23;;;;;;;6.90;1.60;;;7.40;99.90;;;;;;5117995;28;20464;-70
2021/10/22 04:42:40;;;;;;;8.97;1.77;;;7.40;99.90;;;;;;5117658;28;20426;-70
2021/10/22 04:45:10;;;;;;;3.50;2.23;;;7.40;99.90;;;;;;5117680;28;20440;-70
2021/10/22 04:47:37;;;;;;;9.03;2.03;;;7.40;99.90;;;;;;5117527;27;20475;-70
2021/10/22 04:50:05;;;;;;;4.73;1.40;;;7.40;99.90;;;;;;5117261;28;20455;-70
2021/10/22 04:52:32;;;;;;;9.97;1.90;;;7.40;99.90;;;;;;5117771;28;20459;-70
2021/10/22 04:54:59;;;;;;;5.70;2.03;;;7.40;99.90;;;;;;5117785;28;20455;-70
2021/10/22 04:57:26;;;;;;;7.63;2.33;;;7.40;99.90;;;;;;5117642;28;20466;-70
2021/10/22 04:59:52;;;;;;;9.17;1.80;;;7.50;99.90;;;;;;5117418;28;20474;-70
2021/10/22 05:02:20;;;;;;;9.73;1.87;;;7.50;99.90;;;;;;5117606;28;20455;-70
2021/10/22 05:04:48;;;;;;;6.83;2.00;;;7.50;99.90;;;;;;5117073;28;20518;-70
2021/10/22 05:07:14;;;;;;;8.10;2.20;;;7.40;99.90;;;;;;5116228;28;20488;-69
2021/10/22 05:09:41;;;;;;;5.67;2.17;;;7.40;99.90;;;;;;5117371;28;20456;-70
2021/10/22 05:12:08;;;;;;;7.00;1.77;;;7.50;99.90;;;;;;5117298;27;20460;-70
2021/10/22 05:14:35;;;;;;;9.00;1.90;;;7.50;99.90;;;;;;5117308;28;20455;-69
2021/10/22 05:17:02;;;;;;;4.37;2.50;;;7.50;99.90;;;;;;5117125;28;20463;-68
2021/10/22 05:19:30;;;;;;;9.93;1.97;;;7.50;99.90;;;;;;5117232;28;20482;-69
2021/10/22 05:21:56;;;;;;;5.63;1.57;;;7.50;99.90;;;;;;5117244;28;20935;-69
2021/10/22 05:24:24;;;;;;;8.27;2.43;;;7.50;99.90;;;;;;5117462;28;20456;-69
2021/10/22 05:26:51;;;;;;;5.17;1.60;;;7.50;99.90;;;;;;5116684;28;20460;-70
2021/10/22 05:29:17;;;;;;;5.33;1.67;;;7.50;99.90;;;;;;5117669;28;20474;-69
2021/10/22 05:31:45;;;;;;;6.40;1.53;;;7.50;99.90;;;;;;5116621;28;20467;-70
2021/10/22 05:34:12;;;;;;;6.60;2.33;;;7.50;99.90;;;;;;5117169;28;20471;-70
2021/10/22 05:36:40;;;;;;;5.00;1.73;;;7.40;99.90;;;;;;5116421;28;20559;-70
2021/10/22 05:39:07;;;;;;;9.70;2.70;;;7.40;99.90;;;;;;5116271;28;20495;-70
2021/10/22 05:41:34;;;;;;;5.33;1.77;;;7.40;99.90;;;;;;5116418;28;20457;-69
2021/10/22 05:44:00;;;;;;;6.10;1.63;;;7.40;99.90;;;;;;5116621;28;20470;-69
2021/10/22 05:46:27;;;;;;;3.17;1.27;;;7.40;99.90;;;;;;5116270;28;20459;-71
2021/10/22 05:48:54;;;;;;;9.47;2.73;;;7.40;99.90;;;;;;5116345;28;20898;-69
2021/10/22 05:51:21;;;;;;;6.10;1.70;;;7.40;99.90;;;;;;5116501;28;20458;-70
2021/10/22 05:53:51;;;;;;;5.20;2.00;;;7.40;99.90;;;;;;5116090;28;20791;-69
2021/10/22 05:56:18;;;;;;;7.87;1.60;;;7.50;99.90;;;;;;5116150;28;20489;-69
2021/10/22 05:58:45;;;;;;;4.50;1.70;;;7.50;99.90;;;;;;5116080;28;20480;-69
2021/10/22 06:01:12;;;;;;;10.03;2.00;;;7.40;99.90;;;;;;5116087;28;20455;-69
2021/10/22 06:03:38;;;;;;;11.23;1.80;;;7.40;99.90;;;;;;5116062;28;20469;-69
2021/10/22 06:06:06;;;;;;;8.37;2.13;;;7.50;99.90;;;;;;5116312;28;20830;-69
2021/10/22 06:08:32;;;;;;;6.43;2.30;;;7.50;99.90;;;;;;5116262;28;20435;-69
2021/10/22 06:11:01;;;;;;;8.27;2.10;;;7.60;99.90;;;;;;5116009;28;20472;-69
2021/10/22 06:13:33;;;;;;;7.00;2.10;;;7.50;99.90;;;;;;5115670;28;20520;-69
2021/10/22 06:16:00;;;;;;;9.50;2.57;;;7.60;99.90;;;;;;5115707;28;20502;-69
2021/10/22 06:18:27;;;;;;;4.33;2.00;;;7.60;99.90;;;;;;5115786;28;20784;-69
2021/10/22 06:20:57;;;;;;;6.23;2.27;;;7.70;99.90;;;;;;5114744;28;20463;-69
2021/10/22 06:26:09;;;;;;;11.17;2.10;;;7.70;99.90;;;;;;5115627;28;20429;-70
2021/10/22 06:28:36;;;;;;;9.60;2.47;;;7.80;99.90;;;;;;5115714;28;20454;-70
2021/10/22 06:31:02;;;;;;;9.20;1.97;;;7.80;99.90;;;;;;5116092;28;20467;-70
2021/10/22 06:33:29;;;;;;;6.97;2.10;;;7.90;99.90;;;;;;5115690;28;20835;-68
2021/10/22 06:35:56;;;;;;;7.33;1.97;;;7.90;99.90;;;;;;5115979;28;20466;-70
2021/10/22 06:38:23;;;;;;;6.30;2.40;;;8.00;99.90;;;;;;5115732;28;20471;-70
2021/10/22 06:40:53;;;;;;;11.47;1.97;;;8.00;99.90;;;;;;5115981;28;20593;-70
2021/10/22 06:43:22;;;;;;;11.73;2.50;;;8.00;99.90;;;;;;5115999;28;20444;-70
2021/10/22 06:45:49;;;;;;;3.00;1.80;;;8.10;99.90;;;;;;5115698;28;20469;-70
2021/10/22 06:48:15;;;;;;;6.00;2.40;;;8.10;99.90;;;;;;5115854;28;20784;-70
2021/10/22 06:50:42;;;;;;;7.33;2.20;;;8.10;99.90;;;;;;5115410;28;20489;-71
2021/10/22 06:53:09;;;;;;;5.60;2.10;;;8.20;99.90;;;;;;5114662;28;20793;-70
2021/10/22 06:55:37;;;;;;;6.30;2.23;;;8.20;99.90;;;;;;5115055;28;20474;-71
2021/10/22 06:58:04;;;;;;;7.97;2.07;;;8.20;99.90;;;;;;5115308;28;20459;-71
2021/10/22 07:00:32;;;;;;;10.37;2.10;;;8.20;99.90;;;;;;5114893;28;20827;-71
2021/10/22 07:02:59;;;;;;;5.50;2.17;;;8.30;99.90;;;;;;5114896;28;20460;-70
2021/10/22 07:05:46;;;;;;;9.03;2.17;;;8.30;99.90;;;;;;5115187;28;20467;-70
2021/10/22 07:08:12;;;;;;;4.17;1.47;;;8.40;99.90;;;;;;5114839;28;20820;-70
2021/10/22 07:10:41;;;;;;;2.70;1.60;;;8.40;99.90;;;;;;5114892;28;20509;-70
2021/10/22 07:13:09;;;;;;;3.27;1.63;;;8.40;99.90;;;;;;5114904;28;20517;-70
2021/10/22 07:15:37;;;;;;;4.63;2.20;;;8.40;99.90;;;;;;5114950;28;20467;-70
2021/10/22 07:18:04;;;;;;;9.53;2.33;;;8.50;99.90;;;;;;5114894;28;20456;-70
2021/10/22 07:20:33;;;;;;;7.20;2.00;;;8.50;99.90;;;;;;5114966;28;20484;-70
2021/10/22 07:23:06;;;;;;;5.30;2.27;;;8.60;99.90;;;;;;5115385;28;20471;-70
2021/10/22 07:25:35;;;;;;;5.53;2.40;;;8.60;99.90;;;;;;5114569;28;20773;-70
2021/10/22 07:28:07;;;;;;;8.67;1.90;;;8.60;99.90;;;;;;5114929;28;20485;-70
2021/10/22 07:30:35;;;;;;;3.63;1.77;;;8.60;99.90;;;;;;5115115;28;20486;-70
2021/10/22 07:33:03;;;;;;;7.77;1.80;;;8.50;99.90;;;;;;5119327;28;20449;-71
2021/10/22 07:35:30;;;;;;;8.00;2.03;;;8.60;99.90;;;;;;5119269;28;20456;-69
2021/10/22 07:37:58;;;;;;;3.33;1.57;;;8.70;99.90;;;;;;5118997;28;20457;-68
2021/10/22 07:40:25;;;;;;;7.80;2.00;;;8.70;99.90;;;;;;5118625;28;20480;-70
2021/10/22 07:42:53;;;;;;;11.77;1.57;;;8.70;99.90;;;;;;5118932;27;20460;-69
2021/10/22 07:45:20;;;;;;;4.37;1.70;;;8.70;99.90;;;;;;5118830;28;20488;-70
2021/10/22 07:47:47;;;;;;;7.87;2.00;;;8.70;99.90;;;;;;5118594;28;20546;-69
2021/10/22 07:50:15;;;;;;;5.67;1.80;;;8.70;99.90;;;;;;5118379;28;20456;-70
2021/10/22 07:52:42;;;;;;;4.13;1.83;;;8.70;99.90;;;;;;5118463;28;20460;-70
2021/10/22 07:55:09;;;;;;;5.70;2.20;;;8.80;99.90;;;;;;5118977;28;20466;-70
2021/10/22 07:57:35;;;;;;;9.97;2.00;;;8.80;99.90;;;;;;5118420;28;20524;-70
2021/10/22 08:00:02;;;;;;;5.57;1.57;;;8.70;99.90;;;;;;5118248;27;20784;-70
2021/10/22 08:02:29;;;;;;;5.70;1.73;;;8.70;99.90;;;;;;5118416;28;20964;-70
2021/10/22 08:04:56;;;;;;;5.87;2.17;;;8.80;99.90;;;;;;5117894;28;20919;-70
2021/10/22 08:07:30;;;;;;;3.93;2.07;;;8.80;99.90;;;;;;5118060;28;20543;-70
2021/10/22 08:09:58;;;;;;;4.67;2.30;;;8.80;99.90;;;;;;5119492;28;20464;-70
2021/10/22 08:12:25;;;;;;;6.90;1.80;;;8.80;99.90;;;;;;5118461;28;20456;-70
2021/10/22 08:14:52;;;;;;;5.90;1.77;;;8.80;99.90;;;;;;5118210;28;20457;-70
2021/10/22 08:17:20;;;;;;;8.63;1.73;;;8.90;99.90;;;;;;5118446;28;20555;-71
2021/10/22 08:19:53;;;;;;;11.30;1.87;;;8.90;99.90;;;;;;5118574;28;20875;-70
2021/10/22 08:22:27;;;;;;;4.67;1.70;;;8.90;99.90;;;;;;5117790;28;20893;-68
2021/10/22 08:24:59;;;;;;;7.93;2.07;;;8.80;99.90;;;;;;5118198;28;20443;-68
2021/10/22 08:27:26;;;;;;;8.07;2.13;;;8.90;99.90;;;;;;5118087;28;20750;-68
2021/10/22 08:29:52;;;;;;;5.07;1.80;;;8.90;99.90;;;;;;5117856;28;20450;-69
2021/10/22 08:32:19;;;;;;;5.87;2.00;;;8.90;99.90;;;;;;5119783;28;20553;-69
2021/10/22 08:34:46;;;;;;;4.47;2.00;;;8.90;99.90;;;;;;5118885;28;20453;-69
2021/10/22 08:37:12;;;;;;;7.57;2.27;;;9.00;99.90;;;;;;5118584;28;20488;-69
2021/10/22 08:39:44;;;;;;;5.83;1.77;;;9.00;99.90;;;;;;5117932;28;20502;-69
2021/10/22 08:42:15;;;;;;;4.73;1.80;;;9.00;99.90;;;;;;5117340;28;20440;-69
2021/10/22 08:44:43;;;;;;;8.33;1.97;;;9.00;99.90;;;;;;5117651;28;20453;-69
2021/10/22 08:47:11;;;;;;;3.90;2.00;;;9.00;99.90;;;;;;5118419;27;20803;-70
2021/10/22 08:49:38;;;;;;;7.43;1.70;;;9.00;99.90;;;;;;5119372;28;20830;-70
2021/10/22 08:52:06;;;;;;;5.33;1.70;;;9.00;99.90;;;;;;5118528;28;20488;-69
2021/10/22 08:54:35;;;;;;;5.43;1.70;;;9.10;99.90;;;;;;5118579;28;20788;-70
2021/10/22 08:57:02;;;;;;;6.87;2.13;;;9.10;99.90;;;;;;5118911;28;20453;-70
2021/10/22 08:59:30;;;;;;;9.40;1.67;;;9.20;99.90;;;;;;5118791;28;20553;-69
2021/10/22 09:02:17;;;;;;;10.80;2.60;;;9.20;99.90;;;;;;5119648;28;20561;-70
2021/10/22 09:04:45;;;;;;;5.37;1.83;;;9.20;99.90;;;;;;5118728;28;20445;-68
2021/10/22 09:07:13;;;;;;;5.37;1.97;;;9.30;99.90;;;;;;5122746;28;20495;-69
2021/10/22 09:09:41;;;;;;;4.70;2.23;;;9.40;99.90;;;;;;5124152;28;20483;-69
2021/10/22 09:12:08;;;;;;;7.40;2.40;;;9.40;99.90;;;;;;5126027;28;20502;-68
2021/10/22 09:14:37;;;;;;;4.73;1.80;;;9.50;99.90;;;;;;5125642;28;20456;-69
2021/10/22 09:17:11;;;;;;;15.60;2.73;;;9.40;99.90;;;;;;5120864;27;20480;-70
2021/10/22 09:19:41;;;;;;;11.20;2.00;;;9.50;99.90;;;;;;5119663;28;20468;-69
2021/10/22 09:22:24;;;;;;;9.93;2.10;;;9.60;99.90;;;;;;5118288;28;20456;-69
2021/10/22 09:24:52;;;;;;;8.30;2.00;;;9.70;99.90;;;;;;5117232;28;20484;-69
2021/10/22 09:27:33;;;;;;;6.40;2.00;;;9.70;99.90;;;;;;5116854;28;20452;-68
2021/10/22 09:30:01;;;;;;;13.20;2.07;;;9.70;99.90;;;;;;5117001;28;20453;-68
2021/10/22 09:32:29;;;;;;;6.27;2.07;;;9.70;99.90;;;;;;5116745;28;20447;-69
2021/10/22 09:34:56;;;;;;;3.70;1.40;;;9.70;99.90;;;;;;5116894;28;20488;-69
2021/10/22 09:37:23;;;;;;;10.67;2.57;;;9.60;99.90;;;;;;5117059;28;20456;-69
2021/10/22 09:39:49;;;;;;;9.60;2.20;;;9.60;99.90;;;;;;5117374;28;20478;-69
2021/10/22 09:42:19;;;;;;;7.33;2.00;;;9.50;99.90;;;;;;5117267;28;20457;-69
2021/10/22 09:44:48;;;;;;;7.90;2.23;;;9.50;99.90;;;;;;5118855;28;20463;-69
2021/10/22 09:47:17;;;;;;;4.57;1.70;;;9.50;99.90;;;;;;5116785;28;20452;-68
2021/10/22 09:49:47;;;;;;;8.80;2.20;;;9.50;99.90;;;;;;5116785;28;20500;-69
2021/10/22 09:52:15;;;;;;;6.30;2.33;;;9.50;99.90;;;;;;5116628;28;20522;-69
2021/10/22 09:54:42;;;;;;;11.53;2.47;;;9.50;99.90;;;;;;5116642;28;20457;-69
2021/10/22 09:57:09;;;;;;;5.63;2.17;;;9.50;99.90;;;;;;5116340;28;20457;-69
2021/10/22 09:59:38;;;;;;;6.43;2.40;;;9.50;99.90;;;;;;5116660;28;20482;-68
2021/10/22 10:02:09;;;;;;;8.33;2.17;;;9.50;99.90;;;;;;5116856;28;20453;-69
2021/10/22 10:04:38;;;;;;;15.40;2.87;;;9.50;99.90;;;;;;5116460;28;20449;-68
2021/10/22 10:07:06;;;;;;;3.83;2.17;;;9.50;99.90;;;;;;5116304;28;20489;-70
2021/10/22 10:09:37;;;;;;;5.57;2.67;;;9.50;99.90;;;;;;5116623;28;20527;-72
2021/10/22 10:12:04;;;;;;;7.43;2.53;;;9.50;99.90;;;;;;5116587;28;20816;-69
2021/10/22 10:14:31;;;;;;;7.47;2.33;;;9.50;99.90;;;;;;5116458;28;20520;-68
2021/10/22 10:16:58;;;;;;;9.47;2.30;;;9.60;99.90;;;;;;5115897;28;20459;-69
2021/10/22 10:19:30;;;;;;;3.17;2.13;;;9.60;99.90;;;;;;5115869;28;20466;-68
2021/10/22 10:22:00;;;;;;;10.87;2.37;;;9.70;99.90;;;;;;5115982;28;20452;-69
2021/10/22 10:24:31;;;;;;;5.17;2.20;;;9.80;99.90;;;;;;5115597;28;20455;-68
2021/10/22 10:27:04;;;;;;;4.60;2.40;;;9.80;99.90;;;;;;5116012;28;20439;-68
2021/10/22 10:29:33;;;;;;;4.53;1.80;;;9.90;99.90;;;;;;5115830;28;20456;-68
2021/10/22 10:32:02;;;;;;;11.43;2.27;;;9.90;99.90;;;;;;5115810;27;20491;-68
2021/10/22 10:34:38;;;;;;;8.13;2.10;;;9.90;99.90;;;;;;5118156;28;20819;-69
2021/10/22 10:37:23;;;;;;;7.60;2.20;;;9.90;99.90;;;;;;5115641;28;20535;-69
2021/10/22 10:40:08;;;;;;;6.20;2.50;;;9.90;99.90;;;;;;5115746;28;20458;-68
2021/10/22 10:42:40;;;;;;;6.83;2.30;;;9.90;99.90;;;;;;5115941;28;20443;-68
2021/10/22 10:45:09;;;;;;;10.53;2.50;;;9.90;99.90;;;;;;5115878;28;20797;-68
2021/10/22 10:47:46;;;;;;;5.20;1.77;;;10.00;99.90;;;;;;5115669;28;20527;-69
2021/10/22 10:50:16;;;;;;;8.23;1.57;;;9.90;99.90;;;;;;5115586;28;20433;-69
2021/10/22 10:52:45;;;;;;;5.97;2.50;;;10.00;99.90;;;;;;5115028;28;20948;-69
2021/10/22 10:55:17;;;;;;;6.80;2.73;;;10.00;99.90;;;;;;5115612;28;20456;-69
2021/10/22 10:57:49;;;;;;;5.47;1.80;;;9.90;99.90;;;;;;5114978;28;20773;-69
2021/10/22 11:00:17;;;;;;;12.60;2.10;;;10.00;99.90;;;;;;5116051;28;20741;-70
2021/10/22 11:03:15;;;;;;;5.83;1.93;;;9.90;99.90;;;;;;5115154;28;20460;-70
2021/10/22 11:06:04;;;;;;;8.67;3.00;;;9.90;99.90;;;;;;5114625;28;20445;-69
2021/10/22 11:08:49;;;;;;;2.80;1.83;;;9.90;99.90;;;;;;5115894;28;20444;-69
2021/10/22 11:11:40;;;;;;;7.90;2.00;;;9.90;99.90;;;;;;5115766;28;20442;-70
2021/10/22 11:14:18;;;;;;;2.40;1.77;;;9.90;99.90;;;;;;5114909;28;20796;-69
2021/10/22 11:16:59;;;;;;;13.90;2.50;;;9.90;99.90;;;;;;5116396;28;20738;-70
2021/10/22 11:19:35;;;;;;;10.80;2.50;;;9.90;99.90;;;;;;5115405;28;20440;-69
2021/10/22 11:22:28;;;;;;;5.60;2.03;;;9.90;99.90;;;;;;5115296;28;20474;-70
2021/10/22 11:24:56;;;;;;;4.40;1.93;;;9.90;99.90;;;;;;5115139;28;20461;-69
2021/10/22 11:27:25;;;;;;;6.73;2.10;;;10.00;99.90;;;;;;5115499;28;20752;-69
2021/10/22 11:29:54;;;;;;;2.80;1.70;;;10.00;99.90;;;;;;5115323;28;20485;-69
2021/10/22 11:32:22;;;;;;;5.77;1.67;;;10.10;99.90;;;;;;5115677;28;20453;-69
2021/10/22 11:34:56;;;;;;;6.97;2.40;;;10.10;99.90;;;;;;5115258;28;20444;-68
2021/10/22 11:37:26;;;;;;;4.17;2.07;;;10.20;99.90;;;;;;5115588;28;20500;-69
2021/10/22 11:39:54;;;;;;;5.23;1.90;;;10.20;99.90;;;;;;5114711;28;20785;-70
2021/10/22 11:42:28;;;;;;;3.37;1.80;;;10.20;99.90;;;;;;5114645;28;20466;-70
2021/10/22 11:44:58;;;;;;;2.73;1.60;;;10.20;99.90;;;;;;5115159;28;20443;-70
2021/10/22 11:47:32;;;;;;;6.10;1.70;;;10.30;99.90;;;;;;5114684;28;20499;-70
2021/10/22 11:50:11;;;;;;;2.33;1.73;;;10.30;99.90;;;;;;5115200;28;20505;-69
2021/10/22 11:52:39;;;;;;;7.10;1.90;;;10.40;99.90;;;;;;5115084;28;20439;-69
2021/10/22 11:55:06;;;;;;;7.63;1.77;;;10.40;99.90;;;;;;5114484;28;20831;-69
2021/10/22 11:57:35;;;;;;;3.10;1.70;;;10.40;99.90;;;;;;5114525;28;20459;-70
2021/10/22 12:00:05;;;;;;;4.67;1.53;;;10.50;99.90;;;;;;5114790;28;20459;-70
2021/10/22 12:02:32;;;;;;;6.97;1.87;;;10.50;99.90;;;;;;5114659;28;20852;-68
2021/10/22 12:05:02;;;;;;;4.67;1.70;;;10.60;99.90;;;;;;5114599;28;20489;-69
2021/10/22 12:07:30;;;;;;;3.73;2.00;;;10.60;99.90;;;;;;5114221;28;20580;-70
2021/10/22 12:09:57;;;;;;;2.40;1.20;;;10.60;99.90;;;;;;5114514;28;20457;-71
2021/10/22 12:12:24;;;;;;;5.53;1.57;;;10.60;99.90;;;;;;5114431;28;20468;-69
2021/10/22 12:14:53;;;;;;;4.93;1.97;;;10.60;99.90;;;;;;5114674;28;20457;-69
2021/10/22 12:17:22;;;;;;;4.40;1.30;;;10.60;99.90;;;;;;5114629;28;20456;-69
2021/10/22 12:19:52;;;;;;;4.90;1.87;;;10.60;99.90;;;;;;5118939;28;20777;-70
2021/10/22 12:22:25;;;;;;;4.30;1.80;;;10.60;99.90;;;;;;5118380;27;20473;-70
2021/10/22 12:24:54;;;;;;;3.70;1.50;;;10.60;99.90;;;;;;5117981;28;20485;-70
2021/10/22 12:27:26;;;;;;;7.97;2.20;;;10.60;99.90;;;;;;5118419;28;20455;-70
2021/10/22 12:30:00;;;;;;;8.37;1.80;;;10.50;99.90;;;;;;5118562;28;20439;-70
2021/10/22 12:32:37;;;;;;;3.20;1.77;;;10.50;99.90;;;;;;5118350;28;20479;-71
2021/10/22 12:35:07;;;;;;;3.10;1.60;;;10.50;99.90;;;;;;5118245;28;20441;-70
2021/10/22 12:37:39;;;;;;;3.90;1.50;;;10.60;99.90;;;;;;5118306;28;20453;-72
2021/10/22 12:40:21;;;;;;;2.80;1.57;;;10.60;99.90;;;;;;5119161;28;20458;-71
2021/10/22 12:43:29;;;;;;;5.27;2.50;;;10.60;99.90;;;;;;5118098;28;20469;-71
2021/10/22 12:46:00;;;;;;;4.90;1.67;;;10.70;99.90;;;;;;5081191;28;20470;-70
2021/10/22 12:48:29;;;;;;;4.80;1.93;;;10.70;99.90;;;;;;5117872;28;20459;-70
2021/10/22 12:51:02;;;;;;;3.90;1.70;;;10.70;99.90;;;;;;5117569;28;20456;-70
2021/10/22 12:53:32;;;;;;;7.80;1.90;;;10.70;99.90;;;;;;5117604;28;20433;-70
2021/10/22 12:56:05;;;;;;;7.50;1.63;;;10.80;99.90;;;;;;5117721;28;20942;-70
2021/10/22 12:58:32;;;;;;;8.10;2.10;;;10.80;99.90;;;;;;5117406;27;20441;-70
2021/10/22 13:01:13;;;;;;;11.40;1.73;;;10.80;99.90;;;;;;5117219;28;20482;-71
2021/10/22 13:03:42;;;;;;;5.67;1.43;;;10.90;99.90;;;;;;5117323;27;20762;-69
2021/10/22 13:06:17;;;;;;;8.40;1.70;;;10.80;99.90;;;;;;5117145;28;20465;-70
2021/10/22 13:08:59;;;;;;;4.03;1.70;;;10.70;99.90;;;;;;5117661;28;20443;-69